Latest Weather Observations for Yulara

IDD60801

Issued at 10:31 am CST Monday 1 June 2020 (issued every 10 minutes, with the page automatically refreshed every 10 minutes)

About weather observations | Map of weather stations | Latest weather observations for NT | Other Formats
Station Details ID: 015635 Name: YULARA AIRPORT Lat: -25.19 Lon: 130.97 Height: 492.0 m
Data from the previous 72 hours. | See also: Recent months at Yulara
Date/Time
CST
Temp
°C
App
Temp
°C
Dew
Point
°C
Rel
Hum
%
Delta-T
°C
Wind Press
QNH
hPa
Press
MSL
hPa
Rain since
9am
mm
Dir  Spd
km/h
Gust
km/h
Spd
kts
Gust
kts
01/10:00am 14.5 10.2 1.1 40 5.9 SE 13 17 7 9 1026.9 1026.6 0.0
01/09:30am 13.2 9.6 0.3 41 5.5 SE 9 13 5 7 1026.6 1026.3 0.0
01/09:00am 12.0 8.6 -0.5 42 5.2 ESE 7 9 4 5 1026.2 1025.0 0.0
01/08:30am 9.7 6.4 -1.6 45 4.5 NE 6 7 3 4 1025.8 1024.6 0.0
01/08:00am 7.8 4.2 -2.2 49 3.8 NNE 7 9 4 5 1025.2 1024.1 0.0
01/07:30am 5.2 2.8 -3.3 54 3.1 CALM 0 0 0 0 1024.8 1023.7 0.0
01/07:00am 7.3 4.3 -1.6 53 3.4 ESE 4 7 2 4 1024.6 1023.5 0.0
01/06:30am 7.4 3.4 -2.3 50 3.7 S 9 13 5 7 1024.2 1023.0 0.0
01/06:00am 8.3 3.2 -2.3 47 4.1 SSW 15 20 8 11 1023.7 1022.5 0.0
01/05:30am 8.4 3.3 -2.2 47 4.1 S 15 17 8 9 1023.5 1022.3 0.0
01/05:00am 8.8 3.6 -2.8 44 4.4 S 15 19 8 10 1023.3 1022.1 0.0
01/04:30am 9.2 4.0 -2.7 43 4.6 S 15 19 8 10 1023.3 1022.1 0.0
01/04:00am 9.6 4.7 -3.0 41 4.8 S 13 17 7 9 1023.4 1022.2 0.0
01/03:30am 10.6 4.6 -3.1 38 5.3 S 19 28 10 15 1023.0 1021.9 0.0
01/03:00am 10.2 4.2 -2.8 40 5.0 S 19 24 10 13 1022.9 1021.8 0.0
01/02:30am 10.4 4.4 -2.9 39 5.1 SSW 19 24 10 13 1022.9 1021.8 0.0
01/02:00am 10.9 5.3 -2.8 38 5.4 SSW 17 24 9 13 1022.8 1021.7 0.0
01/01:30am 9.2 4.3 -3.0 42 4.6 S 13 17 7 9 1022.7 1021.6 0.0
01/01:00am 10.0 5.2 -2.6 41 4.9 SSW 13 17 7 9 1022.8 1021.7 0.0
01/12:30am 9.9 5.5 -2.7 41 4.9 SSW 11 15 6 8 1022.9 1021.8 0.0
01/12:00am 9.7 4.9 -2.3 43 4.7 S 13 15 7 8 1023.0 1021.9 0.0
 
Date/Time
CST
Temp
°C
App
Temp
°C
Dew
Point
°C
Rel
Hum
%
Delta-T
°C
Wind Press
QNH
hPa
Press
MSL
hPa
Rain since
9am
mm
Dir  Spd
km/h
Gust
km/h
Spd
kts
Gust
kts
31/11:30pm 10.1 5.7 -2.2 42 4.8 S 11 13 6 7 1023.1 1022.0 0.0
31/11:00pm 11.0 6.3 -1.7 41 5.1 S 13 17 7 9 1023.0 1021.9 0.0
31/10:30pm 12.1 7.4 -1.8 38 5.6 SSW 13 17 7 9 1022.9 1021.8 0.0
31/10:00pm 12.8 8.1 -1.5 37 5.9 SSW 13 17 7 9 1022.8 1021.7 0.0
31/09:30pm 13.1 8.8 -1.6 36 6.0 S 11 13 6 7 1022.5 1021.3 0.0
31/09:00pm 14.1 9.9 -1.1 35 6.4 SSW 11 13 6 7 1022.2 1021.0 0.0
31/08:30pm 15.5 11.3 -0.7 33 6.9 SSW 11 15 6 8 1021.9 1020.7 0.0
31/08:00pm 16.7 12.9 -0.5 31 7.5 SSW 9 13 5 7 1021.6 1020.4 0.0
31/07:30pm 18.1 14.0 -0.2 29 8.1 SSW 11 15 6 8 1021.3 1020.1 0.0
31/07:00pm 17.6 13.5 -0.2 30 7.9 WSW 11 13 6 7 1020.8 1019.6 0.0
31/06:30pm 20.0 16.4 0.5 27 8.9 SW 9 11 5 6 1020.4 1019.2 0.0
31/06:00pm 22.1 17.7 0.6 24 10.0 WSW 13 17 7 9 1020.1 1018.9 0.0
31/05:30pm 23.4 19.2 1.7 24 10.4 WSW 13 19 7 10 1019.8 1018.6 0.0
31/05:00pm 24.0 19.4 1.6 23 10.8 WSW 15 26 8 14 1019.7 1018.5 0.0
31/04:30pm 24.2 19.4 2.4 24 10.7 WSW 17 24 9 13 1019.3 1018.1 0.0
31/04:00pm 24.4 19.8 3.7 26 10.4 W 17 28 9 15 1019.3 1018.1 0.0
31/03:30pm 23.9 20.1 3.8 27 10.1 SSW 13 20 7 11 1019.4 1018.2 0.0
31/03:00pm 23.8 19.7 4.2 28 9.9 W 15 24 8 13 1019.6 1018.4 0.0
31/02:30pm 23.7 20.0 4.6 29 9.7 WSW 13 26 7 14 1019.9 1018.7 0.0
31/02:00pm 23.1 19.6 5.5 32 9.1 SW 13 19 7 10 1020.4 1019.2 0.0
31/01:30pm 22.3 18.9 6.1 35 8.4 S 13 24 7 13 1020.7 1019.5 0.0
31/01:00pm 22.7 20.2 6.5 35 8.5 WSW 9 15 5 8 1021.4 1020.2 0.0
31/12:30pm 22.1 20.3 7.1 38 7.9 SSE 6 13 3 7 1022.0 1020.8 0.0
31/12:00pm 20.7 18.3 7.0 41 7.1 ESE 9 13 5 7 1022.4 1021.2 0.0
31/11:30am 20.2 18.2 6.2 40 7.2 E 6 13 3 7 1022.7 1021.6 0.0
31/11:00am 19.3 16.2 5.7 41 6.9 ENE 11 17 6 9 1023.1 1022.0 0.0
31/10:30am 18.4 15.8 5.9 44 6.3 ESE 9 15 5 8 1023.4 1022.2 0.0
31/10:00am 17.8 14.4 6.0 46 5.9 ESE 13 19 7 10 1023.3 1022.1 0.0
31/09:30am 16.3 13.7 5.9 50 5.1 SSE 9 13 5 7 1023.1 1022.0 0.0
31/09:00am 14.7 11.7 5.8 55 4.3 S 11 15 6 8 1022.8 1021.7 0.0
31/08:30am 12.7 10.0 5.6 62 3.4 S 9 13 5 7 1022.3 1021.1 0.0
31/08:00am 11.3 7.8 5.4 67 2.8 SSW 13 15 7 8 1021.9 1020.7 0.0
31/07:30am 10.3 6.7 5.1 70 2.4 S 13 15 7 8 1021.6 1020.4 0.0
31/07:00am 10.8 8.0 5.3 69 2.6 SSW 9 11 5 6 1021.4 1020.2 0.0
31/06:30am 11.5 8.0 5.4 66 2.9 SSW 13 17 7 9 1020.7 1019.5 0.0
31/06:00am 11.7 8.2 5.3 65 3.0 S 13 17 7 9 1020.4 1019.2 0.0
31/05:30am 12.8 9.7 5.7 62 3.4 SSW 11 15 6 8 1020.2 1019.0 0.0
31/05:00am 12.8 9.4 5.7 62 3.4 S 13 15 7 8 1020.0 1018.8 0.0
31/04:30am 12.9 9.5 5.8 62 3.4 SSW 13 19 7 10 1020.0 1018.8 0.0
31/04:00am 13.5 10.1 6.1 61 3.6 SSW 13 19 7 10 1019.8 1018.6 0.0
31/03:30am 14.0 10.7 6.6 61 3.7 SSW 13 17 7 9 1019.8 1018.6 0.0
31/03:00am 13.8 11.1 7.3 65 3.3 SSW 11 15 6 8 1019.6 1018.4 0.0
31/02:30am 14.5 12.0 8.0 65 3.3 SSW 11 17 6 9 1019.6 1018.4 0.0
31/02:00am 14.2 12.2 8.8 70 2.8 SSW 9 13 5 7 1019.6 1018.4 0.0
31/01:30am 14.3 12.3 8.7 69 2.9 S 9 11 5 6 1019.3 1018.1 0.0
31/01:00am 14.4 12.4 8.6 68 3.0 SSW 9 11 5 6 1019.3 1018.1 0.0
31/12:30am 14.9 13.3 8.6 66 3.3 SSW 7 9 4 5 1019.5 1018.3 0.0
31/12:00am 15.9 14.7 10.2 69 3.1 SW 7 9 4 5 1019.6 1018.4 0.0
 
Date/Time
CST
Temp
°C
App
Temp
°C
Dew
Point
°C
Rel
Hum
%
Delta-T
°C
Wind Press
QNH
hPa
Press
MSL
hPa
Rain since
9am
mm
Dir  Spd
km/h
Gust
km/h
Spd
kts
Gust
kts
30/11:30pm 16.5 16.3 10.6 68 3.2 SW 2 7 1 4 1019.7 1018.5 0.0
30/11:00pm 17.0 16.9 9.4 61 4.1 CALM 0 0 0 0 1019.7 1018.5 0.0
30/10:30pm 17.7 16.6 10.1 61 4.1 SW 6 7 3 4 1019.5 1018.3 0.0
30/10:00pm 17.8 16.4 9.7 59 4.4 SW 7 9 4 5 1019.5 1018.3 0.0
30/09:30pm 18.5 16.8 9.8 57 4.7 SSW 9 9 5 5 1019.5 1018.3 0.0
30/09:00pm 19.0 17.6 9.5 54 5.1 S 7 9 4 5 1019.3 1018.1 0.0
30/08:30pm 20.4 19.0 9.6 50 5.9 SSW 7 11 4 6 1018.8 1017.6 0.0
30/08:00pm 21.5 19.1 10.0 48 6.4 SW 13 17 7 9 1018.4 1017.2 0.0
30/07:30pm 21.2 18.6 6.3 38 7.7 W 9 11 5 6 1017.9 1016.7 0.0
30/07:00pm 22.9 20.5 7.1 36 8.4 NW 9 13 5 7 1017.4 1016.1 0.0
30/06:30pm 24.1 21.3 6.8 33 9.2 WNW 11 15 6 8 1017.0 1015.7 0.0
30/06:00pm 25.2 21.3 6.9 31 9.8 W 17 24 9 13 1016.8 1015.5 0.0
30/05:30pm 26.2 21.6 6.3 28 10.6 WNW 20 26 11 14 1016.6 1015.4 0.0
30/05:00pm 26.4 21.4 6.4 28 10.7 WNW 22 32 12 17 1016.4 1015.2 0.0
30/04:30pm 27.1 21.7 6.5 27 11.1 WNW 24 35 13 19 1016.2 1015.0 0.0
30/04:00pm 27.1 22.2 7.0 28 10.9 WNW 22 33 12 18 1016.1 1014.9 0.0
30/03:30pm 26.0 20.1 7.6 31 10.0 WNW 28 43 15 23 1016.3 1015.1 0.0
30/03:00pm 27.2 21.3 7.6 29 10.7 WNW 28 43 15 23 1016.3 1015.1 0.0
30/02:30pm 27.3 20.7 7.7 29 10.7 WNW 32 50 17 27 1016.4 1015.2 0.0
30/02:10pm 26.3 20.6 8.3 32 9.9 NW 28 46 15 25 1016.4 1015.2 0.0
30/02:00pm 25.7 19.7 8.7 34 9.4 WNW 30 43 16 23 1016.9 1015.6 0.0
30/01:30pm 25.7 20.0 8.2 33 9.6 WNW 28 39 15 21 1017.3 1016.0 0.0
30/01:00pm 25.5 19.0 8.1 33 9.5 WNW 32 43 17 23 1017.8 1016.6 0.0
30/12:30pm 25.2 18.8 8.7 35 9.1 NW 32 46 17 25 1018.4 1017.2 0.0
30/12:00pm 25.2 20.0 8.7 35 9.1 NW 26 35 14 19 1018.8 1017.6 0.0
30/11:30am 23.6 17.4 7.7 36 8.5 NW 30 39 16 21 1019.6 1018.4 0.0
30/11:00am 23.0 16.6 7.1 36 8.4 NW 30 43 16 23 1020.1 1018.9 0.0
30/10:30am 22.0 16.6 4.6 32 8.7 NW 22 32 12 17 1020.6 1019.4 0.0
30/10:00am 20.6 15.9 3.3 32 8.4 NW 17 24 9 13 1020.6 1019.4 0.0
30/09:30am 19.1 14.9 1.6 31 8.1 NNW 13 19 7 10 1020.4 1019.2 0.0
30/09:00am 16.5 14.6 0.6 34 7.1 CALM 0 0 0 0 1020.2 1019.0 0.0
30/08:30am 14.8 11.8 0.6 38 6.2 S 6 7 3 4 1020.2 1019.0 0.0
30/08:00am 13.5 10.5 0.9 42 5.5 S 6 7 3 4 1020.0 1018.8 0.0
30/07:30am 12.3 10.0 0.4 44 5.1 SSW 2 7 1 4 1019.8 1018.6 0.0
30/07:00am 14.1 12.1 -0.4 37 6.2 CALM 0 4 0 2 1019.6 1018.4 0.0
30/06:30am 14.4 12.5 0.6 39 6.0 CALM 0 0 0 0 1019.3 1018.1 0.0
30/06:00am 13.5 11.8 1.8 45 5.2 CALM 0 0 0 0 1019.2 1017.9 0.0
30/05:30am 13.7 11.4 0.7 41 5.7 SSE 2 6 1 3 1018.8 1017.6 0.0
30/05:00am 14.5 12.6 0.7 39 6.1 CALM 0 4 0 2 1018.6 1017.4 0.0
30/04:30am 14.9 11.8 0.4 37 6.3 NNW 6 9 3 5 1019.1 1017.8 0.0
30/04:00am 15.2 11.4 -0.5 34 6.8 ENE 9 13 5 7 1018.8 1017.6 0.0
30/03:30am 14.8 11.0 -0.5 35 6.5 E 9 13 5 7 1018.8 1017.6 0.0
30/03:00am 14.3 11.1 -0.5 36 6.3 SE 6 6 3 3 1019.2 1017.9 0.0
30/02:30am 13.3 10.1 -0.7 38 5.9 SSE 6 9 3 5 1019.4 1018.2 0.0
30/02:00am 14.5 11.3 -0.8 35 6.5 ESE 6 7 3 4 1019.3 1018.1 0.0
30/01:30am 15.1 11.7 -0.6 34 6.7 E 7 9 4 5 1019.4 1018.2 0.0
30/01:00am 15.6 11.8 -0.6 33 7.0 ENE 9 13 5 7 1019.7 1018.5 0.0
30/12:30am 16.4 12.3 -0.3 32 7.3 E 11 15 6 8 1019.8 1018.6 0.0
30/12:00am 17.2 12.3 -0.5 30 7.7 ENE 15 19 8 10 1020.0 1018.8 0.0
 
Date/Time
CST
Temp
°C
App
Temp
°C
Dew
Point
°C
Rel
Hum
%
Delta-T
°C
Wind Press
QNH
hPa
Press
MSL
hPa
Rain since
9am
mm
Dir  Spd
km/h
Gust
km/h
Spd
kts
Gust
kts
29/11:30pm 18.0 12.2 -0.3 29 8.1 NE 20 24 11 13 1020.3 1019.1 0.0
29/11:00pm 18.9 12.7 0.0 28 8.5 NE 22 28 12 15 1020.3 1019.1 0.0
29/10:30pm 19.7 12.7 -0.3 26 9.0 NE 26 32 14 17 1020.3 1019.1 0.0
29/10:00pm 20.2 13.7 0.1 26 9.2 ENE 24 32 13 17 1020.3 1019.1 0.0
29/09:30pm 20.5 14.9 1.4 28 8.9 ENE 20 26 11 14 1020.4 1019.2 0.0
29/09:00pm 19.9 16.8 3.6 34 7.9 ENE 9 11 5 6 1020.4 1019.2 0.0
29/08:30pm 16.7 14.1 1.2 35 7.0 ENE 4 7 2 4 1020.2 1019.0 0.0
29/08:00pm 17.5 14.7 2.3 36 7.1 NNE 6 6 3 3 1020.1 1018.9 0.0
29/07:30pm 17.9 15.5 2.2 35 7.3 NE 4 6 2 3 1019.8 1018.6 0.0
29/07:00pm 19.9 17.0 2.7 32 8.2 NNE 7 7 4 4 1019.5 1018.3 0.0
29/06:30pm 21.9 19.1 3.1 29 9.2 N 7 9 4 5 1019.4 1018.2 0.0
29/06:00pm 23.7 20.6 3.6 27 10.0 N 9 15 5 8 1019.2 1017.9 0.0
29/05:30pm 24.6 21.2 3.8 26 10.5 NNE 11 17 6 9 1019.1 1017.8 0.0
29/05:00pm 24.8 20.2 3.5 25 10.7 NNW 17 20 9 11 1019.2 1017.9 0.0
29/04:30pm 25.2 21.3 3.2 24 11.0 NE 13 19 7 10 1019.0 1017.7 0.0
29/04:00pm 25.0 21.8 3.0 24 11.0 NNE 9 15 5 8 1019.2 1017.9 0.0
29/03:30pm 25.2 20.9 3.2 24 11.0 WNW 15 24 8 13 1019.4 1018.2 0.0
29/03:00pm 25.1 21.1 3.1 24 11.0 NW 13 20 7 11 1019.8 1018.6 0.0
29/02:30pm 24.8 20.9 3.5 25 10.7 NNW 13 22 7 12 1020.2 1019.0 0.0
29/02:00pm 25.1 22.0 3.7 25 10.8 NW 9 22 5 12 1020.6 1019.4 0.0
29/01:30pm 24.5 21.8 3.8 26 10.4 NE 7 19 4 10 1020.9 1019.7 0.0
29/01:00pm 23.8 20.6 3.2 26 10.2 NNW 9 19 5 10 1021.6 1020.4 0.0
29/12:30pm 23.2 18.8 2.7 26 10.0 NNE 15 24 8 13 1022.1 1020.9 0.0
29/12:00pm 22.7 18.2 2.2 26 9.9 NE 15 24 8 13 1022.5 1021.3 0.0
29/11:30am 22.1 17.1 1.2 25 9.8 ENE 17 22 9 12 1023.0 1021.9 0.0
29/11:00am 21.0 15.5 1.8 28 9.1 ENE 20 30 11 16 1023.6 1022.4 0.0

Other formats

Comma delimited format used in spreadsheet applications
http://www.bom.gov.au/fwo/IDD60801/IDD60801.94462.axf

JavaScript Object Notation format (JSON) in row-major order
http://www.bom.gov.au/fwo/IDD60801/IDD60801.94462.json

Data quality

Most of these data are generated automatically and are frequently updated. Quality checks on data are not normally performed. It is possible for incorrect values to appear. Refer to information at About Latest Weather Observations and please check the disclaimer before using these data.